Time;durP1;ratioP1;P1;durP2;ratioP2;P2;SDS_P1;SDS_P2;PMS_P1;PMS_P2;Temp;Humidity;BMP_temperature;BMP_pressure;BME280_temperature;BME280_humidity;BME280_pressure;Samples;Min_cycle;Max_cycle;Signal;HPM_P1;HPM_P2
2021/07/06 00:00:39;;;;;;;12.63;8.35;;;640.00;1740.80;;;;;;5112290;28;20020;-81
2021/07/06 00:03:05;;;;;;;10.75;8.40;;;615.20;1792.00;;;;;;5111285;28;20035;-80
2021/07/06 00:05:31;;;;;;;11.90;8.23;;;615.20;1792.00;;;;;;5112394;28;20020;-82
2021/07/06 00:07:57;;;;;;;13.50;8.98;;;615.20;1792.00;;;;;;5110946;28;20114;-81
2021/07/06 00:10:25;;;;;;;18.52;9.00;;;615.10;1792.00;;;;;;5111007;28;20173;-81
2021/07/06 00:12:51;;;;;;;16.33;9.38;;;615.10;1792.00;;;;;;5110958;28;20031;-82
2021/07/06 00:15:23;;;;;;;14.25;8.18;;;615.20;1792.00;;;;;;5103798;28;20066;-80
2021/07/06 00:17:53;;;;;;;16.33;9.00;;;615.10;1792.00;;;;;;5091024;28;20020;-82
2021/07/06 00:20:20;;;;;;;20.73;8.48;;;615.00;1817.60;;;;;;5090499;28;20076;-81
2021/07/06 00:22:45;;;;;;;13.60;8.50;;;615.10;1792.00;;;;;;5090859;28;20024;-81
2021/07/06 00:25:12;;;;;;;17.13;9.20;;;615.00;1792.00;;;;;;5091018;28;20032;-81
2021/07/06 00:27:38;;;;;;;12.70;8.05;;;615.00;1817.60;;;;;;5090966;28;20024;-81
2021/07/06 00:30:06;;;;;;;16.35;9.05;;;615.00;1817.60;;;;;;5100866;28;20080;-82
2021/07/06 00:32:32;;;;;;;19.48;9.48;;;614.90;1817.60;;;;;;5111041;28;20055;-81
2021/07/06 00:34:57;;;;;;;15.52;8.68;;;614.80;1843.20;;;;;;5110978;28;20491;-82
2021/07/06 00:37:23;;;;;;;16.00;8.65;;;614.70;1843.20;;;;;;5110926;28;20032;-82
2021/07/06 00:39:49;;;;;;;20.30;9.30;;;614.80;1843.20;;;;;;5111723;28;20152;-82
2021/07/06 00:42:15;;;;;;;18.65;8.68;;;614.70;1843.20;;;;;;5113378;28;20464;-81
2021/07/06 00:44:40;;;;;;;17.85;9.50;;;614.70;1843.20;;;;;;5114280;28;20058;-80
2021/07/06 00:47:07;;;;;;;18.63;8.57;;;614.80;1843.20;;;;;;5114651;28;20028;-81
2021/07/06 00:49:33;;;;;;;17.92;9.25;;;614.70;1843.20;;;;;;5114490;28;20023;-82
2021/07/06 00:51:59;;;;;;;15.68;9.95;;;614.70;1843.20;;;;;;5113961;28;20027;-81
2021/07/06 00:54:25;;;;;;;14.85;8.38;;;614.70;1843.20;;;;;;5114502;28;20039;-81
2021/07/06 00:56:51;;;;;;;16.92;9.18;;;614.60;1868.80;;;;;;5115457;28;20019;-82
2021/07/06 00:59:19;;;;;;;16.30;8.98;;;614.40;1894.40;;;;;;5114188;28;20020;-81
2021/07/06 01:01:44;;;;;;;19.88;8.70;;;589.70;1894.40;;;;;;5114379;28;20380;-80
2021/07/06 01:04:11;;;;;;;64.50;56.92;;;589.70;1894.40;;;;;;5113876;28;20085;-81
2021/07/06 01:06:36;;;;;;;100.93;90.85;;;614.40;1894.40;;;;;;5114221;27;20046;-81
2021/07/06 01:09:04;;;;;;;84.30;76.22;;;589.60;1894.40;;;;;;5115660;27;20027;-81
2021/07/06 01:11:30;;;;;;;52.55;42.85;;;589.60;1894.40;;;;;;5113976;28;20038;-82
2021/07/06 01:13:55;;;;;;;32.47;29.08;;;589.60;1894.40;;;;;;5113614;28;20035;-81
2021/07/06 01:16:21;;;;;;;26.05;15.65;;;589.70;1894.40;;;;;;5097711;28;20487;-81
2021/07/06 01:18:48;;;;;;;18.73;13.80;;;589.70;1894.40;;;;;;5094311;28;20513;-82
2021/07/06 01:21:13;;;;;;;14.68;11.25;;;614.40;1868.80;;;;;;5093458;28;20020;-82
2021/07/06 01:23:39;;;;;;;15.80;11.88;;;589.70;1868.80;;;;;;5093428;28;20477;-81
2021/07/06 01:26:07;;;;;;;13.43;9.95;;;589.70;1868.80;;;;;;5093520;28;20039;-81
2021/07/06 01:28:35;;;;;;;18.48;9.80;;;589.70;1868.80;;;;;;5127540;27;20016;-81
2021/07/06 01:31:01;;;;;;;13.57;9.32;;;614.40;1868.80;;;;;;5127464;27;20028;-81
2021/07/06 01:33:29;;;;;;;14.27;9.68;;;614.40;1868.80;;;;;;5127494;27;20035;-81
2021/07/06 01:36:00;;;;;;;13.48;9.15;;;589.70;1868.80;;;;;;5127239;27;20031;-81
2021/07/06 01:38:27;;;;;;;18.15;9.80;;;589.70;1868.80;;;;;;5127490;27;20020;-81
2021/07/06 01:40:53;;;;;;;17.38;9.88;;;589.70;1868.80;;;;;;5142611;27;20114;-81
2021/07/06 01:43:19;;;;;;;18.23;10.00;;;589.70;1868.80;;;;;;5113391;28;20127;-81
2021/07/06 01:45:45;;;;;;;15.52;9.65;;;589.70;1868.80;;;;;;5113074;28;20181;-82
2021/07/06 01:48:11;;;;;;;14.73;9.27;;;589.70;1868.80;;;;;;5113461;28;20114;-80
2021/07/06 01:50:39;;;;;;;17.10;9.25;;;614.40;1843.20;;;;;;5113417;28;20122;-81
2021/07/06 01:53:16;;;;;;;14.00;9.77;;;589.70;1868.80;;;;;;5114586;28;20024;-80
2021/07/06 01:55:45;;;;;;;16.85;9.93;;;589.70;1843.20;;;;;;5113259;28;20031;-80
2021/07/06 01:58:13;;;;;;;14.55;9.20;;;589.70;1868.80;;;;;;5113001;28;20155;-80
2021/07/06 02:00:48;;;;;;;19.40;9.05;;;589.70;1868.80;;;;;;5114369;28;20024;-81
2021/07/06 02:03:14;;;;;;;15.07;9.97;;;589.70;1868.80;;;;;;5113243;28;20455;-80
2021/07/06 02:05:45;;;;;;;18.98;10.48;;;589.60;1868.80;;;;;;5113049;27;20122;-81
2021/07/06 02:08:17;;;;;;;14.07;10.07;;;589.50;1894.40;;;;;;5113091;28;20047;-81
2021/07/06 02:10:44;;;;;;;25.33;9.68;;;589.50;1894.40;;;;;;5113076;28;20026;-81
2021/07/06 02:13:12;;;;;;;18.88;9.73;;;589.30;1894.40;;;;;;5112954;28;20115;-81
2021/07/06 02:15:39;;;;;;;16.40;10.18;;;589.30;1920.00;;;;;;5102973;28;20111;-81
2021/07/06 02:18:08;;;;;;;17.48;10.02;;;589.40;1894.40;;;;;;5104049;28;20025;-81
2021/07/06 02:20:33;;;;;;;14.70;9.60;;;589.50;1894.40;;;;;;5105798;28;20023;-81
2021/07/06 02:23:00;;;;;;;12.55;9.25;;;589.50;1894.40;;;;;;5129189;27;20069;-82
2021/07/06 02:25:26;;;;;;;15.07;10.10;;;589.30;1920.00;;;;;;5093311;28;20020;-82
2021/07/06 02:27:52;;;;;;;18.63;9.73;;;589.40;1920.00;;;;;;5092298;28;20034;-82
2021/07/06 02:30:20;;;;;;;17.15;8.85;;;589.50;1894.40;;;;;;5126974;27;20097;-82
2021/07/06 02:32:48;;;;;;;17.67;10.55;;;589.50;1894.40;;;;;;5126083;27;20024;-82
2021/07/06 02:35:15;;;;;;;32.85;10.60;;;589.50;1894.40;;;;;;5092496;28;20090;-81
2021/07/06 02:37:41;;;;;;;18.67;10.00;;;589.50;1894.40;;;;;;5092167;28;20070;-82
2021/07/06 02:40:09;;;;;;;15.45;10.13;;;589.20;1920.00;;;;;;5092067;28;20059;-81
2021/07/06 02:42:37;;;;;;;20.92;11.25;;;589.20;1920.00;;;;;;5092109;28;20032;-81
2021/07/06 02:45:08;;;;;;;24.25;10.57;;;589.30;1920.00;;;;;;5091498;28;20501;-81
2021/07/06 02:47:34;;;;;;;17.65;10.82;;;589.30;1920.00;;;;;;5093623;28;20077;-82
2021/07/06 02:50:00;;;;;;;16.73;10.55;;;589.30;1920.00;;;;;;5091844;28;20354;-80
2021/07/06 02:52:26;;;;;;;19.35;10.60;;;589.40;1894.40;;;;;;5091879;28;20020;-80
2021/07/06 02:54:52;;;;;;;18.67;10.48;;;589.50;1894.40;;;;;;5091662;28;20039;-81
2021/07/06 03:00:26;;;;;;;19.27;10.93;;;589.20;1945.60;;;;;;5093306;28;20031;-82
2021/07/06 03:02:58;;;;;;;16.00;10.43;;;589.20;1945.60;;;;;;5091600;28;20063;-82
2021/07/06 03:05:26;;;;;;;17.30;11.32;;;589.20;1945.60;;;;;;5092184;28;20024;-82
2021/07/06 03:07:52;;;;;;;21.02;11.05;;;588.90;1971.20;;;;;;5091875;28;20081;-81
2021/07/06 03:10:23;;;;;;;16.42;11.05;;;588.90;1971.20;;;;;;5092263;28;20054;-82
2021/07/06 03:12:50;;;;;;;17.58;10.98;;;588.90;1971.20;;;;;;5092688;28;20032;-81
2021/07/06 03:15:19;;;;;;;16.10;11.65;;;588.90;1996.80;;;;;;5099421;28;20515;-81
2021/07/06 03:17:45;;;;;;;17.05;11.20;;;588.90;1996.80;;;;;;5111605;27;20370;-80
2021/07/06 03:20:13;;;;;;;12.40;10.98;;;588.90;1996.80;;;;;;5111394;28;20110;-81
2021/07/06 03:22:39;;;;;;;20.50;10.80;;;588.90;1996.80;;;;;;5111785;28;20055;-81
2021/07/06 03:25:06;;;;;;;17.67;11.55;;;588.80;1996.80;;;;;;5112978;28;20100;-81
2021/07/06 03:27:32;;;;;;;12.68;10.27;;;588.80;1996.80;;;;;;5112773;28;20111;-81
2021/07/06 03:29:58;;;;;;;18.38;11.57;;;589.00;1996.80;;;;;;5112995;28;20030;-82
2021/07/06 03:32:24;;;;;;;16.17;11.40;;;588.90;1996.80;;;;;;5111592;28;20451;-82
2021/07/06 03:34:49;;;;;;;16.17;11.27;;;588.90;1971.20;;;;;;5111645;28;20114;-82
2021/07/06 03:37:15;;;;;;;16.85;10.13;;;588.90;1971.20;;;;;;5111237;28;20487;-82
2021/07/06 03:39:42;;;;;;;16.48;11.18;;;589.10;1971.20;;;;;;5111399;28;20035;-80
2021/07/06 03:42:09;;;;;;;24.58;11.13;;;589.00;1971.20;;;;;;5111149;28;20055;-81
2021/07/06 03:44:35;;;;;;;17.85;11.07;;;589.10;1971.20;;;;;;5111056;28;20059;-81
2021/07/06 03:47:03;;;;;;;16.70;11.48;;;589.10;1945.60;;;;;;5111049;28;20051;-80
2021/07/06 03:49:29;;;;;;;12.70;9.70;;;589.10;1945.60;;;;;;5111427;28;20110;-82
2021/07/06 03:51:55;;;;;;;14.02;10.68;;;589.10;1945.60;;;;;;5111414;28;20028;-80
2021/07/06 03:54:20;;;;;;;19.27;10.23;;;589.10;1971.20;;;;;;5112348;28;20040;-81
2021/07/06 03:56:46;;;;;;;19.17;10.63;;;589.10;1945.60;;;;;;5111352;28;20047;-81
2021/07/06 03:59:12;;;;;;;14.52;11.07;;;589.10;1945.60;;;;;;5111268;28;20114;-80
2021/07/06 04:01:38;;;;;;;20.83;11.68;;;589.20;1945.60;;;;;;5111285;28;20049;-81
2021/07/06 04:04:04;;;;;;;15.60;10.65;;;589.30;1945.60;;;;;;5111379;28;20081;-81
2021/07/06 04:06:30;;;;;;;19.05;10.93;;;589.30;1945.60;;;;;;5111432;28;20020;-81
2021/07/06 04:08:56;;;;;;;17.75;10.95;;;589.30;1945.60;;;;;;5111198;28;20034;-81
2021/07/06 04:11:22;;;;;;;16.02;10.57;;;589.30;1945.60;;;;;;5111528;28;20019;-81
2021/07/06 04:13:48;;;;;;;13.48;11.40;;;589.30;1945.60;;;;;;5110785;28;20051;-81
2021/07/06 04:16:15;;;;;;;12.55;10.85;;;589.30;1971.20;;;;;;5098403;28;20031;-81
2021/07/06 04:18:42;;;;;;;14.50;10.98;;;589.40;1971.20;;;;;;5095097;28;20039;-82
2021/07/06 04:21:08;;;;;;;14.40;10.50;;;589.40;1971.20;;;;;;5095092;28;20036;-82
2021/07/06 04:23:38;;;;;;;15.95;10.93;;;589.50;1971.20;;;;;;5095337;28;20036;-83
2021/07/06 04:26:04;;;;;;;14.02;11.27;;;589.60;1971.20;;;;;;5094801;28;20030;-82
2021/07/06 04:28:30;;;;;;;17.90;11.50;;;589.50;1971.20;;;;;;5094521;28;20028;-81
2021/07/06 04:30:58;;;;;;;13.40;10.95;;;589.40;1996.80;;;;;;5094490;28;20030;-82
2021/07/06 04:33:23;;;;;;;17.35;10.95;;;589.50;1971.20;;;;;;5094424;28;20047;-82
2021/07/06 04:35:49;;;;;;;17.17;10.80;;;589.40;1971.20;;;;;;5094430;28;20032;-82
2021/07/06 04:38:15;;;;;;;19.92;12.07;;;589.50;1971.20;;;;;;5094552;28;20123;-81
2021/07/06 04:40:41;;;;;;;16.17;11.82;;;589.50;1971.20;;;;;;5111645;28;20032;-81
2021/07/06 04:43:07;;;;;;;17.27;11.70;;;589.60;1971.20;;;;;;5111234;28;20097;-81
2021/07/06 04:45:34;;;;;;;13.15;10.98;;;589.60;1971.20;;;;;;5094207;28;20028;-80
2021/07/06 04:48:00;;;;;;;16.02;11.20;;;589.60;1971.20;;;;;;5093754;28;20039;-81
2021/07/06 04:50:26;;;;;;;17.25;11.32;;;589.60;1971.20;;;;;;5094124;28;20027;-81
2021/07/06 04:52:53;;;;;;;23.90;18.05;;;589.50;1996.80;;;;;;5128381;27;20423;-80
2021/07/06 04:55:19;;;;;;;14.55;11.77;;;589.60;1971.20;;;;;;5114416;28;20050;-81
2021/07/06 04:57:46;;;;;;;33.33;22.23;;;589.70;1971.20;;;;;;5114350;28;20019;-82
2021/07/06 05:00:13;;;;;;;23.95;16.50;;;589.70;1971.20;;;;;;5114614;28;20050;-88
2021/07/06 05:02:40;;;;;;;19.38;10.98;;;614.40;1971.20;;;;;;5115412;28;20465;-81
2021/07/06 05:05:07;;;;;;;17.92;13.10;;;614.50;1971.20;;;;;;5115469;28;20034;-81
2021/07/06 05:07:36;;;;;;;19.70;15.20;;;614.40;1971.20;;;;;;5114993;28;20031;-80
2021/07/06 05:10:07;;;;;;;18.55;11.73;;;614.50;1945.60;;;;;;5114031;28;20028;-81
2021/07/06 05:12:33;;;;;;;22.88;16.25;;;614.50;1971.20;;;;;;5113660;28;20499;-80
2021/07/06 05:15:00;;;;;;;16.77;11.27;;;614.60;1945.60;;;;;;5109363;28;20400;-80
2021/07/06 05:17:25;;;;;;;15.98;10.60;;;614.60;1945.60;;;;;;5127791;27;20020;-81
2021/07/06 05:19:51;;;;;;;17.88;12.32;;;614.70;1945.60;;;;;;5094488;28;20051;-81
2021/07/06 05:22:17;;;;;;;14.80;10.43;;;614.70;1945.60;;;;;;5127756;27;20020;-80
2021/07/06 05:24:43;;;;;;;11.93;9.82;;;614.80;1920.00;;;;;;5093302;28;20047;-81
2021/07/06 05:27:09;;;;;;;15.95;10.95;;;614.80;1920.00;;;;;;5094448;28;20020;-81
2021/07/06 05:29:34;;;;;;;18.83;13.05;;;614.80;1920.00;;;;;;5094557;28;20024;-81
2021/07/06 05:32:01;;;;;;;13.52;10.80;;;614.90;1920.00;;;;;;5093048;28;20032;-81
2021/07/06 05:34:27;;;;;;;15.68;10.27;;;615.00;1920.00;;;;;;5093275;28;20043;-81
2021/07/06 05:36:53;;;;;;;16.90;10.30;;;615.10;1894.40;;;;;;5127318;27;20020;-81
2021/07/06 05:39:20;;;;;;;21.95;13.77;;;615.30;1843.20;;;;;;5093360;28;20024;-80
2021/07/06 05:41:46;;;;;;;20.23;11.88;;;640.00;1843.20;;;;;;5127044;27;20103;-80
2021/07/06 05:44:13;;;;;;;15.93;9.70;;;640.00;1817.60;;;;;;5127307;27;20063;-81
2021/07/06 05:46:39;;;;;;;14.73;10.23;;;640.10;1843.20;;;;;;5103375;28;20017;-81
2021/07/06 05:49:05;;;;;;;19.27;9.90;;;640.30;1792.00;;;;;;5145005;27;20032;-81
2021/07/06 05:51:31;;;;;;;15.65;9.20;;;640.40;1766.40;;;;;;5134316;27;20028;-80
2021/07/06 05:53:57;;;;;;;20.85;9.55;;;640.40;1766.40;;;;;;5092869;28;20496;-81
2021/07/06 05:56:23;;;;;;;15.43;9.93;;;640.60;1740.80;;;;;;5093111;28;20088;-85
2021/07/06 05:58:49;;;;;;;11.98;9.23;;;640.70;1715.20;;;;;;5092570;28;20493;-81
2021/07/06 06:01:16;;;;;;;18.75;8.73;;;640.70;1715.20;;;;;;5133991;27;20028;-81
2021/07/06 06:03:42;;;;;;;12.57;9.18;;;640.90;1715.20;;;;;;5113251;27;20035;-82
2021/07/06 06:06:08;;;;;;;13.20;8.45;;;640.70;1715.20;;;;;;5114668;28;20027;-83
2021/07/06 06:08:36;;;;;;;12.68;8.82;;;665.60;1740.80;;;;;;5113091;28;20024;-81
2021/07/06 06:11:02;;;;;;;11.82;8.18;;;665.70;1715.20;;;;;;5112849;28;20023;-81
2021/07/06 06:13:28;;;;;;;12.45;8.45;;;665.70;1689.60;;;;;;5112344;28;20557;-82
2021/07/06 06:15:54;;;;;;;13.68;7.70;;;665.90;1689.60;;;;;;5101596;28;20032;-79
2021/07/06 06:18:20;;;;;;;11.02;8.18;;;665.80;1638.40;;;;;;5092425;28;20020;-81
2021/07/06 06:20:45;;;;;;;12.38;8.18;;;665.90;1689.60;;;;;;5126072;27;20028;-78
2021/07/06 06:23:11;;;;;;;12.15;8.98;;;666.00;1664.00;;;;;;5126247;27;20523;-78
2021/07/06 06:25:37;;;;;;;12.65;7.68;;;666.00;1638.40;;;;;;5126052;27;20109;-79
2021/07/06 06:28:03;;;;;;;16.35;8.43;;;666.10;1664.00;;;;;;5091855;28;20020;-78
2021/07/06 06:30:29;;;;;;;17.05;8.20;;;666.20;1638.40;;;;;;5091349;28;20359;-79
2021/07/06 06:32:55;;;;;;;14.60;8.30;;;666.20;1664.00;;;;;;5093091;28;20020;-79
2021/07/06 06:35:22;;;;;;;12.15;7.95;;;666.30;1664.00;;;;;;5091667;28;20464;-78
2021/07/06 06:37:48;;;;;;;14.98;7.88;;;666.30;1612.80;;;;;;5091624;28;20107;-79
2021/07/06 06:40:14;;;;;;;10.13;7.63;;;666.40;1612.80;;;;;;5091844;28;20112;-79
2021/07/06 06:42:41;;;;;;;13.77;8.35;;;666.50;1638.40;;;;;;5092485;28;20016;-79
2021/07/06 06:45:08;;;;;;;18.27;8.43;;;691.30;1638.40;;;;;;5091734;28;20127;-79
2021/07/06 06:47:36;;;;;;;11.55;8.23;;;691.30;1587.20;;;;;;5092455;28;20127;-79
2021/07/06 06:50:05;;;;;;;14.43;7.63;;;691.20;1587.20;;;;;;5091535;28;20032;-79
2021/07/06 06:52:32;;;;;;;12.77;8.50;;;691.30;1612.80;;;;;;5091170;28;20370;-79
2021/07/06 06:54:58;;;;;;;14.05;8.43;;;691.40;1612.80;;;;;;5091648;28;20126;-79
2021/07/06 06:57:24;;;;;;;14.63;8.52;;;691.40;1561.60;;;;;;5125297;27;20123;-81
2021/07/06 06:59:50;;;;;;;15.18;7.80;;;691.50;1587.20;;;;;;5092561;28;20546;-79
2021/07/06 07:02:17;;;;;;;12.20;8.18;;;691.60;1612.80;;;;;;5101337;28;20103;-79
2021/07/06 07:04:44;;;;;;;14.23;7.95;;;691.70;1587.20;;;;;;5111173;28;20081;-80
2021/07/06 07:07:11;;;;;;;12.65;7.72;;;691.70;1612.80;;;;;;5113423;28;20465;-86
2021/07/06 07:09:37;;;;;;;14.45;8.55;;;691.80;1561.60;;;;;;5112086;28;20057;-83
2021/07/06 07:12:03;;;;;;;14.60;8.20;;;691.80;1561.60;;;;;;5112304;28;20020;-87
2021/07/06 07:14:29;;;;;;;10.65;8.45;;;691.90;1561.60;;;;;;5113163;28;20040;-88
2021/07/06 07:16:54;;;;;;;17.35;8.90;;;692.10;1536.00;;;;;;5112320;28;20081;-82
2021/07/06 07:19:20;;;;;;;12.13;8.18;;;692.10;1510.40;;;;;;5113057;28;20028;-81
2021/07/06 07:21:46;;;;;;;13.13;8.10;;;716.80;1536.00;;;;;;5112353;28;20062;-85
2021/07/06 07:24:11;;;;;;;9.23;7.70;;;692.10;1536.00;;;;;;5112067;28;20165;-81
2021/07/06 07:26:37;;;;;;;15.05;7.47;;;716.90;1536.00;;;;;;5112233;28;20027;-82
2021/07/06 07:29:05;;;;;;;13.88;7.13;;;716.90;1536.00;;;;;;5111847;28;20602;-82
2021/07/06 07:31:31;;;;;;;15.38;7.15;;;717.10;1510.40;;;;;;5111871;28;20114;-83
2021/07/06 07:33:58;;;;;;;16.88;7.68;;;717.20;1459.20;;;;;;5111807;28;20028;-84
2021/07/06 07:36:24;;;;;;;17.63;7.50;;;717.10;1484.80;;;;;;5111709;28;20430;-82
2021/07/06 07:38:50;;;;;;;16.65;7.43;;;717.30;1484.80;;;;;;5113156;28;20024;-83
2021/07/06 07:41:16;;;;;;;15.93;7.80;;;717.40;1459.20;;;;;;5111587;28;20050;-82
2021/07/06 07:43:42;;;;;;;11.48;7.53;;;717.50;1484.80;;;;;;5111081;28;20032;-82
2021/07/06 07:46:07;;;;;;;10.48;7.05;;;717.60;1459.20;;;;;;5111067;28;20541;-80
2021/07/06 07:48:33;;;;;;;10.88;6.85;;;717.70;1433.60;;;;;;5108050;28;20499;-80
2021/07/06 07:50:59;;;;;;;12.38;6.95;;;717.70;1408.00;;;;;;5113215;28;20111;-82
2021/07/06 07:53:25;;;;;;;13.25;6.35;;;742.40;1433.60;;;;;;5114860;28;20039;-80
2021/07/06 07:55:53;;;;;;;12.98;7.10;;;742.50;1408.00;;;;;;5115187;27;20035;-80
2021/07/06 07:58:18;;;;;;;13.27;7.68;;;742.60;1433.60;;;;;;5114827;28;20071;-81
2021/07/06 08:00:44;;;;;;;9.30;6.90;;;742.80;1433.60;;;;;;5114805;28;20465;-79
2021/07/06 08:03:10;;;;;;;11.70;7.75;;;742.90;1433.60;;;;;;5116017;28;20066;-81
2021/07/06 08:05:36;;;;;;;14.65;6.97;;;742.90;1408.00;;;;;;5115351;28;20022;-81
2021/07/06 08:08:02;;;;;;;16.23;9.05;;;742.90;1433.60;;;;;;5116539;28;20030;-81
2021/07/06 08:10:28;;;;;;;15.50;10.15;;;743.00;1408.00;;;;;;5115364;28;20537;-80
2021/07/06 08:12:53;;;;;;;15.35;8.65;;;743.00;1382.40;;;;;;5116038;28;20031;-81
2021/07/06 08:15:19;;;;;;;14.20;6.95;;;743.10;1382.40;;;;;;5108901;28;20051;-81
2021/07/06 08:17:45;;;;;;;10.80;6.55;;;743.30;1382.40;;;;;;5115821;28;20055;-82
2021/07/06 08:20:11;;;;;;;13.80;6.38;;;768.00;1356.80;;;;;;5115338;28;20127;-81
2021/07/06 08:22:37;;;;;;;12.77;7.00;;;768.10;1331.20;;;;;;5115827;28;20024;-81
2021/07/06 08:25:04;;;;;;;10.82;7.68;;;768.20;1331.20;;;;;;5116301;28;20020;-81
2021/07/06 08:27:30;;;;;;;9.57;5.70;;;768.20;1305.60;;;;;;5115317;27;20028;-79
2021/07/06 08:29:55;;;;;;;13.90;6.82;;;768.10;1305.60;;;;;;5114825;28;20487;-82
2021/07/06 08:32:21;;;;;;;15.90;6.43;;;768.20;1331.20;;;;;;5114930;28;20042;-81
2021/07/06 08:34:47;;;;;;;13.93;5.03;;;768.30;1331.20;;;;;;5114541;28;20039;-81
2021/07/06 08:37:12;;;;;;;12.02;5.50;;;768.50;1305.60;;;;;;5114264;28;20028;-78
2021/07/06 08:39:38;;;;;;;6.88;5.40;;;768.50;1280.00;;;;;;5114685;28;20085;-80
2021/07/06 08:42:08;;;;;;;9.00;5.78;;;768.60;1280.00;;;;;;5115215;28;20077;-88
2021/07/06 08:44:35;;;;;;;6.38;5.20;;;768.70;1280.00;;;;;;5115066;27;20040;-84
2021/07/06 08:47:01;;;;;;;6.53;5.13;;;768.60;1228.80;;;;;;5115323;28;20028;-85
2021/07/06 08:49:28;;;;;;;11.90;5.15;;;768.70;1254.40;;;;;;5115288;28;20024;-88
2021/07/06 08:51:54;;;;;;;8.65;5.10;;;768.90;1254.40;;;;;;5114838;28;20069;-83
2021/07/06 08:54:20;;;;;;;9.77;4.90;;;793.70;1254.40;;;;;;5115300;28;20477;-79
2021/07/06 08:56:47;;;;;;;13.55;4.97;;;793.70;1254.40;;;;;;5116046;28;20023;-80
2021/07/06 08:59:13;;;;;;;12.02;5.55;;;794.00;1254.40;;;;;;5115104;28;20039;-80
2021/07/06 09:01:39;;;;;;;11.00;5.65;;;794.00;1228.80;;;;;;5115535;28;20023;-83
2021/07/06 09:04:06;;;;;;;13.38;5.93;;;794.00;1203.20;;;;;;5116117;27;20031;-82
2021/07/06 09:06:54;;;;;;;11.13;5.18;;;794.00;1203.20;;;;;;5114955;28;20031;-84
2021/07/06 09:09:26;;;;;;;8.35;5.18;;;794.10;1177.60;;;;;;5115339;27;20502;-83
2021/07/06 09:11:57;;;;;;;9.05;4.85;;;794.10;1203.20;;;;;;5114606;27;20039;-79
2021/07/06 09:14:30;;;;;;;7.88;5.38;;;794.00;1177.60;;;;;;5113537;28;20422;-79
2021/07/06 09:17:14;;;;;;;13.90;6.03;;;794.30;1177.60;;;;;;5093752;28;20035;-81
2021/07/06 09:19:46;;;;;;;10.88;4.68;;;794.30;1177.60;;;;;;5094027;28;20024;-81
2021/07/06 09:22:24;;;;;;;10.60;5.43;;;794.50;1152.00;;;;;;5093410;28;20077;-79
2021/07/06 09:24:58;;;;;;;7.85;5.25;;;794.50;1152.00;;;;;;5094024;28;20036;-82
2021/07/06 09:27:41;;;;;;;7.68;4.90;;;794.50;1152.00;;;;;;5093206;28;20400;-81
2021/07/06 09:30:24;;;;;;;11.23;5.53;;;794.50;1126.40;;;;;;5087350;28;20480;-83
2021/07/06 09:32:51;;;;;;;8.75;5.90;;;819.30;1126.40;;;;;;5094232;28;20016;-81
2021/07/06 09:35:22;;;;;;;9.10;5.45;;;819.50;1100.80;;;;;;5093255;28;20473;-81
2021/07/06 09:37:53;;;;;;;9.02;5.50;;;819.60;1100.80;;;;;;5093020;28;20035;-81
2021/07/06 09:40:30;;;;;;;8.05;5.03;;;819.60;1100.80;;;;;;5093148;28;20028;-81
2021/07/06 09:43:20;;;;;;;8.07;5.65;;;819.60;1126.40;;;;;;5092643;28;20100;-79
2021/07/06 09:45:47;;;;;;;9.65;5.70;;;819.60;1126.40;;;;;;5092522;28;20032;-80
2021/07/06 09:48:13;;;;;;;7.00;5.90;;;819.60;1075.20;;;;;;5092861;28;20024;-80
2021/07/06 09:50:39;;;;;;;7.82;5.70;;;819.80;1075.20;;;;;;5094031;28;20089;-83
2021/07/06 09:53:27;;;;;;;8.48;6.53;;;819.90;1075.20;;;;;;5109831;28;20084;-80
2021/07/06 09:55:53;;;;;;;6.93;5.65;;;820.10;1075.20;;;;;;5092579;28;20371;-77
2021/07/06 09:58:19;;;;;;;10.80;6.05;;;844.80;1100.80;;;;;;5108825;28;20024;-81
2021/07/06 10:00:45;;;;;;;10.82;6.30;;;844.80;1075.20;;;;;;5092794;28;20039;-78
2021/07/06 10:03:11;;;;;;;12.25;6.30;;;819.70;1075.20;;;;;;5092759;28;20032;-79
2021/07/06 10:05:38;;;;;;;11.73;6.78;;;819.60;1075.20;;;;;;5109375;27;20024;-78
2021/07/06 10:08:05;;;;;;;9.05;7.05;;;819.60;1100.80;;;;;;5092912;28;20165;-78
2021/07/06 10:10:31;;;;;;;11.80;6.85;;;819.80;1075.20;;;;;;5092321;28;20024;-79
2021/07/06 10:12:56;;;;;;;8.05;6.60;;;820.10;1075.20;;;;;;5091488;28;20507;-81
2021/07/06 10:15:23;;;;;;;14.13;7.00;;;844.90;1100.80;;;;;;5112192;28;20097;-78
2021/07/06 10:17:51;;;;;;;8.43;5.47;;;845.10;1049.60;;;;;;5112594;28;20388;-83
2021/07/06 10:20:26;;;;;;;10.27;6.10;;;845.30;1049.60;;;;;;5111350;28;20569;-77
2021/07/06 10:22:59;;;;;;;8.07;5.85;;;845.40;1024.00;;;;;;5113878;28;20031;-78
2021/07/06 10:25:31;;;;;;;10.07;6.05;;;845.50;1049.60;;;;;;5112108;28;20057;-78
2021/07/06 10:28:04;;;;;;;7.57;6.00;;;845.60;1024.00;;;;;;5112137;28;20497;-78
2021/07/06 10:30:42;;;;;;;7.05;5.72;;;845.70;998.40;;;;;;5112091;28;20032;-78
2021/07/06 10:33:14;;;;;;;10.13;6.03;;;845.70;1024.00;;;;;;5112323;28;20034;-78
2021/07/06 10:35:40;;;;;;;8.75;6.57;;;845.70;998.40;;;;;;5111673;28;20039;-78
2021/07/06 10:38:28;;;;;;;9.30;6.43;;;845.70;1024.00;;;;;;5112304;28;20024;-83
2021/07/06 10:41:05;;;;;;;11.88;7.97;;;845.40;1024.00;;;;;;5111905;28;20070;-80
2021/07/06 10:43:40;;;;;;;9.60;8.60;;;845.10;1049.60;;;;;;5110789;28;20051;-81
2021/07/06 10:46:21;;;;;;;10.07;6.57;;;844.80;1049.60;;;;;;5092531;28;20040;-77
2021/07/06 10:48:57;;;;;;;32.58;7.05;;;820.10;1049.60;;;;;;5097370;28;20024;-77
2021/07/06 10:51:37;;;;;;;17.23;6.85;;;820.10;1024.00;;;;;;5094292;28;20385;-77
2021/07/06 10:54:22;;;;;;;10.05;8.25;;;845.00;1049.60;;;;;;5091457;28;20031;-76
2021/07/06 10:56:48;;;;;;;7.80;6.47;;;845.30;1024.00;;;;;;5092527;28;20024;-77
2021/07/06 10:59:27;;;;;;;9.50;6.07;;;845.30;998.40;;;;;;5091813;28;20035;-78
2021/07/06 11:01:57;;;;;;;13.07;8.00;;;845.50;998.40;;;;;;5092536;28;20028;-82
2021/07/06 11:04:50;;;;;;;11.55;6.38;;;845.70;1024.00;;;;;;5092207;28;20107;-84
2021/07/06 11:07:37;;;;;;;9.38;6.53;;;870.50;998.40;;;;;;5091243;28;20073;-77
2021/07/06 11:10:05;;;;;;;10.60;6.43;;;870.70;972.80;;;;;;5091474;28;20028;-80
2021/07/06 11:12:41;;;;;;;12.38;6.03;;;870.60;1024.00;;;;;;5091163;28;20392;-81
2021/07/06 11:15:13;;;;;;;9.02;6.30;;;870.40;1049.60;;;;;;5097710;28;20084;-79
2021/07/06 11:17:58;;;;;;;10.10;6.38;;;845.70;998.40;;;;;;5111708;27;20075;-80
2021/07/06 11:20:44;;;;;;;8.80;6.03;;;845.70;998.40;;;;;;5112306;28;20405;-79
2021/07/06 11:23:17;;;;;;;7.55;6.03;;;870.50;972.80;;;;;;5111410;28;20107;-78
2021/07/06 11:25:44;;;;;;;15.25;6.60;;;870.60;998.40;;;;;;5111070;28;20097;-78
2021/07/06 11:28:27;;;;;;;11.88;6.13;;;870.80;998.40;;;;;;5110514;28;20024;-77
2021/07/06 11:31:01;;;;;;;8.98;6.18;;;870.90;947.20;;;;;;5110877;28;20073;-77
2021/07/06 11:33:34;;;;;;;9.57;6.45;;;870.90;972.80;;;;;;5110700;28;20019;-79
2021/07/06 11:36:07;;;;;;;9.48;6.07;;;871.10;972.80;;;;;;5110955;28;20104;-78
2021/07/06 11:38:44;;;;;;;10.25;6.70;;;871.10;947.20;;;;;;5111777;28;20015;-78
2021/07/06 11:41:12;;;;;;;7.30;6.35;;;871.10;896.00;;;;;;5110885;28;20118;-78
2021/07/06 11:43:40;;;;;;;38.90;35.13;;;871.10;947.20;;;;;;5110463;28;20069;-78
2021/07/06 11:46:15;;;;;;;17.98;16.30;;;871.10;921.60;;;;;;5111125;28;20501;-78
2021/07/06 11:48:43;;;;;;;14.07;12.30;;;871.10;921.60;;;;;;5111697;28;20023;-78
2021/07/06 11:51:16;;;;;;;11.75;7.57;;;871.10;947.20;;;;;;5110993;28;20053;-79
2021/07/06 11:53:53;;;;;;;11.07;7.63;;;871.10;921.60;;;;;;5112371;28;20023;-78
2021/07/06 11:56:23;;;;;;;8.52;6.55;;;871.30;921.60;;;;;;5110243;28;20032;-77
2021/07/06 11:58:49;;;;;;;13.20;7.47;;;896.00;896.00;;;;;;5110993;28;20358;-79
2021/07/06 12:01:16;;;;;;;9.00;5.80;;;896.00;921.60;;;;;;5110356;28;20034;-79
2021/07/06 12:03:42;;;;;;;11.55;8.00;;;896.10;896.00;;;;;;5111186;28;20027;-78
2021/07/06 12:06:20;;;;;;;9.70;6.38;;;896.20;921.60;;;;;;5111985;28;20103;-78
2021/07/06 12:08:49;;;;;;;10.85;7.53;;;896.20;947.20;;;;;;5111050;28;20037;-78
2021/07/06 12:11:16;;;;;;;7.72;6.43;;;896.30;921.60;;;;;;5112096;28;20024;-78
2021/07/06 12:13:41;;;;;;;11.38;8.65;;;896.40;870.40;;;;;;5110793;28;20044;-77
2021/07/06 12:16:20;;;;;;;13.20;8.32;;;896.40;921.60;;;;;;5096420;28;20036;-78